Time;durP1;ratioP1;P1;durP2;ratioP2;P2;SDS_P1;SDS_P2;PMS_P1;PMS_P2;Temp;Humidity;BMP_temperature;BMP_pressure;BME280_temperature;BME280_humidity;BME280_pressure;Samples;Min_cycle;Max_cycle;Signal;HPM_P1;HPM_P2
2022/08/28 00:02:11;;;;;;;5.70;2.53;;;;;;;19.69;100.00;100944.34;5013879;28;20455;-71
2022/08/28 00:04:37;;;;;;;5.30;2.50;;;;;;;19.68;100.00;100934.50;5013942;28;20444;-71
2022/08/28 00:07:04;;;;;;;8.53;3.10;;;;;;;19.64;100.00;100932.44;5013696;28;20467;-71
2022/08/28 00:09:32;;;;;;;11.57;3.03;;;;;;;19.66;100.00;100943.09;5013564;28;20456;-71
2022/08/28 00:11:59;;;;;;;7.93;2.70;;;;;;;19.65;100.00;100941.50;5013562;28;20908;-71
2022/08/28 00:14:26;;;;;;;4.73;2.37;;;;;;;19.58;100.00;100941.28;5013524;28;20440;-71
2022/08/28 00:16:53;;;;;;;5.43;2.83;;;;;;;19.55;100.00;100952.97;5013670;28;20446;-72
2022/08/28 00:19:22;;;;;;;5.70;2.73;;;;;;;19.59;100.00;100946.44;5013677;28;20454;-72
2022/08/28 00:21:49;;;;;;;8.13;2.47;;;;;;;19.55;100.00;100948.28;5013583;28;20451;-69
2022/08/28 00:24:16;;;;;;;7.27;3.00;;;;;;;19.58;100.00;100955.03;5013458;28;20455;-69
2022/08/28 00:29:24;;;;;;;7.03;3.57;;;;;;;19.54;100.00;100943.16;4974354;28;20797;-70
2022/08/28 00:31:51;;;;;;;6.23;2.97;;;;;;;19.54;100.00;100935.69;5017381;28;20483;-68
2022/08/28 00:34:17;;;;;;;6.03;3.00;;;;;;;19.52;100.00;100942.69;5017435;28;20444;-70
2022/08/28 00:36:44;;;;;;;5.90;2.90;;;;;;;19.53;100.00;100945.09;5017314;28;20451;-70
2022/08/28 00:39:11;;;;;;;5.50;2.90;;;;;;;19.51;100.00;100946.59;5017353;28;20475;-69
2022/08/28 00:41:39;;;;;;;11.27;4.00;;;;;;;19.54;100.00;100940.41;5017336;28;20478;-72
2022/08/28 00:44:11;;;;;;;7.77;4.20;;;;;;;19.51;100.00;100941.88;5017250;28;20530;-72
2022/08/28 00:46:38;;;;;;;7.80;3.50;;;;;;;19.55;100.00;100942.00;5017324;28;20479;-71
2022/08/28 00:49:05;;;;;;;7.47;3.73;;;;;;;19.51;100.00;100941.09;5017330;28;20450;-71
2022/08/28 00:54:18;;;;;;;9.23;3.50;;;;;;;19.46;100.00;100938.63;5017278;28;20508;-71
2022/08/28 00:56:46;;;;;;;12.00;4.37;;;;;;;19.47;100.00;100945.69;5017141;28;20945;-72
2022/08/28 00:59:17;;;;;;;9.43;4.40;;;;;;;19.42;100.00;100941.25;5017257;28;20440;-72
2022/08/28 01:01:45;;;;;;;9.20;4.53;;;;;;;19.45;100.00;100937.03;5017255;28;20431;-71
2022/08/28 01:04:14;;;;;;;6.10;3.50;;;;;;;19.45;100.00;100937.03;5017080;28;20447;-71
2022/08/28 01:06:41;;;;;;;8.60;4.20;;;;;;;19.41;100.00;100943.22;5016640;28;20929;-72
2022/08/28 01:09:08;;;;;;;7.83;3.57;;;;;;;19.41;100.00;100939.66;5016801;28;20459;-72
2022/08/28 01:11:35;;;;;;;8.60;4.00;;;;;;;19.41;100.00;100945.97;5016247;28;20893;-71
2022/08/28 01:14:02;;;;;;;7.90;3.53;;;;;;;19.44;100.00;100940.94;5016448;28;20953;-71
2022/08/28 01:16:32;;;;;;;7.80;4.50;;;;;;;19.40;100.00;100944.38;5016720;28;20443;-71
2022/08/28 01:19:00;;;;;;;12.67;4.40;;;;;;;19.35;100.00;100932.84;5016751;28;20468;-71
2022/08/28 01:21:30;;;;;;;6.97;3.87;;;;;;;19.33;100.00;100941.44;5016846;28;20440;-71
2022/08/28 01:24:02;;;;;;;9.97;4.90;;;;;;;19.34;100.00;100951.25;5017086;28;20444;-70
2022/08/28 01:26:29;;;;;;;9.67;3.93;;;;;;;19.30;100.00;100941.31;5016710;28;20769;-72
2022/08/28 01:28:57;;;;;;;8.57;5.03;;;;;;;19.28;100.00;100944.44;5016100;28;21012;-71
2022/08/28 01:31:24;;;;;;;8.93;4.57;;;;;;;19.24;100.00;100940.78;5016433;28;20451;-71
2022/08/28 01:33:51;;;;;;;9.50;4.80;;;;;;;19.30;100.00;100946.81;5016617;28;20475;-71
2022/08/28 01:36:18;;;;;;;8.93;4.60;;;;;;;19.30;100.00;100935.81;5015523;28;20471;-72
2022/08/28 01:38:48;;;;;;;8.77;4.87;;;;;;;19.33;100.00;100952.41;5016391;28;20459;-71
2022/08/28 01:41:16;;;;;;;10.03;5.60;;;;;;;19.33;100.00;100946.13;5016084;28;20933;-71
2022/08/28 01:43:43;;;;;;;8.27;4.40;;;;;;;19.33;100.00;100946.91;5016479;28;20440;-70
2022/08/28 01:46:11;;;;;;;7.97;3.97;;;;;;;19.30;100.00;100947.63;5016350;28;20454;-72
2022/08/28 01:48:41;;;;;;;7.80;4.10;;;;;;;19.31;100.00;100953.94;5016186;28;20562;-71
2022/08/28 01:51:09;;;;;;;9.80;4.60;;;;;;;19.34;100.00;100948.50;5016013;28;20534;-72
2022/08/28 01:53:35;;;;;;;7.90;4.53;;;;;;;19.26;100.00;100949.50;5015919;28;20932;-71
2022/08/28 01:56:06;;;;;;;16.47;5.50;;;;;;;19.21;100.00;100944.22;5016004;28;20459;-71
2022/08/28 01:58:35;;;;;;;10.17;4.63;;;;;;;19.09;100.00;100944.31;5016051;28;20526;-71
2022/08/28 02:01:01;;;;;;;9.30;4.20;;;;;;;19.09;100.00;100949.78;5016010;28;20583;-71
2022/08/28 02:03:27;;;;;;;9.60;4.37;;;;;;;19.10;100.00;100948.63;5015838;28;20447;-71
2022/08/28 02:05:54;;;;;;;9.03;5.20;;;;;;;19.04;100.00;100947.31;5015943;28;20448;-70
2022/08/28 02:08:20;;;;;;;9.40;5.10;;;;;;;18.94;100.00;100945.03;5015823;28;20472;-71
2022/08/28 02:10:47;;;;;;;13.23;4.10;;;;;;;18.91;100.00;100957.53;5015660;28;20460;-72
2022/08/28 02:13:14;;;;;;;9.10;3.60;;;;;;;18.85;100.00;100948.72;5015820;28;20838;-71
2022/08/28 02:15:42;;;;;;;12.10;3.80;;;;;;;18.80;100.00;100954.44;5015740;28;20444;-71
2022/08/28 02:18:09;;;;;;;7.23;3.60;;;;;;;18.69;100.00;100950.63;5015356;28;20456;-70
2022/08/28 02:20:36;;;;;;;8.57;3.90;;;;;;;18.64;100.00;100948.88;5015583;28;20440;-69
2022/08/28 02:23:04;;;;;;;6.40;3.10;;;;;;;18.64;100.00;100956.31;5015443;28;20444;-70
2022/08/28 02:25:31;;;;;;;17.43;3.60;;;;;;;18.58;100.00;100952.19;5015409;28;20475;-69
2022/08/28 02:27:59;;;;;;;6.57;3.60;;;;;;;18.52;100.00;100942.63;5015315;28;20474;-69
2022/08/28 02:30:25;;;;;;;7.20;3.00;;;;;;;18.46;100.00;100947.53;5015241;28;20432;-70
2022/08/28 02:32:53;;;;;;;7.07;3.20;;;;;;;18.42;100.00;100952.13;5015183;28;20480;-70
2022/08/28 02:35:22;;;;;;;5.60;2.90;;;;;;;18.48;100.00;100955.41;5015112;28;20432;-70
2022/08/28 02:37:49;;;;;;;6.43;2.93;;;;;;;18.40;100.00;100948.91;5015148;28;20464;-73
2022/08/28 02:40:21;;;;;;;10.10;3.67;;;;;;;18.29;100.00;100948.59;5015414;28;20447;-70
2022/08/28 02:42:48;;;;;;;8.50;3.37;;;;;;;18.32;100.00;100955.31;5015390;28;20421;-71
2022/08/28 02:45:16;;;;;;;5.77;2.97;;;;;;;18.27;100.00;100961.03;5015232;28;20450;-72
2022/08/28 02:47:44;;;;;;;20.17;4.97;;;;;;;18.30;100.00;100961.16;5014569;28;20878;-72
2022/08/28 02:50:15;;;;;;;10.33;3.00;;;;;;;18.27;100.00;100961.81;5014893;28;20440;-72
2022/08/28 02:52:42;;;;;;;6.20;2.60;;;;;;;18.27;100.00;100958.28;5015028;28;20468;-71
2022/08/28 02:55:11;;;;;;;9.93;3.90;;;;;;;18.20;100.00;100958.88;5014967;28;20444;-72
2022/08/28 02:57:37;;;;;;;11.17;2.87;;;;;;;18.20;100.00;100964.38;5015019;28;20475;-70
2022/08/28 03:00:05;;;;;;;6.20;2.70;;;;;;;18.22;100.00;100966.75;5014999;28;20498;-72
2022/08/28 03:02:31;;;;;;;7.80;3.27;;;;;;;18.20;100.00;100958.88;5015078;28;20443;-71
2022/08/28 03:04:59;;;;;;;5.00;2.30;;;;;;;18.17;100.00;100962.31;5014713;28;20444;-70
2022/08/28 03:07:28;;;;;;;4.17;2.00;;;;;;;18.11;100.00;100958.19;5014997;28;20542;-71
2022/08/28 03:09:54;;;;;;;4.30;1.83;;;;;;;18.12;100.00;100954.31;5014630;28;20860;-72
2022/08/28 03:12:22;;;;;;;6.70;1.80;;;;;;;18.09;100.00;100963.22;5014425;28;20479;-72
2022/08/28 03:14:49;;;;;;;5.83;2.50;;;;;;;18.03;100.00;100959.91;5014681;28;20510;-71
2022/08/28 03:17:16;;;;;;;7.23;2.20;;;;;;;18.02;100.00;100963.00;5014231;28;20476;-72
2022/08/28 03:19:42;;;;;;;6.27;2.60;;;;;;;18.03;100.00;100956.38;5014541;28;20479;-72
2022/08/28 03:22:08;;;;;;;5.03;2.27;;;;;;;18.06;100.00;100961.13;5014467;28;20822;-72
2022/08/28 03:24:36;;;;;;;6.60;2.40;;;;;;;17.98;100.00;100954.66;5014242;28;20498;-71
2022/08/28 03:27:03;;;;;;;6.10;2.43;;;;;;;17.99;100.00;100967.22;5014443;28;20818;-74
2022/08/28 03:29:30;;;;;;;7.57;2.33;;;;;;;17.95;100.00;100965.50;5014239;28;20968;-74
2022/08/28 03:31:57;;;;;;;6.33;2.13;;;;;;;17.90;100.00;100963.78;5014374;28;20448;-74
2022/08/28 03:34:23;;;;;;;16.40;2.70;;;;;;;17.86;100.00;100962.84;5014405;28;20498;-73
2022/08/28 03:36:50;;;;;;;6.87;2.50;;;;;;;17.89;100.00;100964.94;5014041;28;20988;-74
2022/08/28 03:39:16;;;;;;;5.13;2.10;;;;;;;17.90;100.00;100974.75;5014394;28;20452;-73
2022/08/28 03:41:44;;;;;;;4.80;1.93;;;;;;;17.89;100.00;100971.19;5013951;28;20448;-73
2022/08/28 03:44:11;;;;;;;6.87;2.73;;;;;;;17.88;100.00;100963.31;5014355;28;20455;-74
2022/08/28 03:46:38;;;;;;;9.10;2.30;;;;;;;17.82;100.00;100970.94;5014159;28;20448;-73
2022/08/28 03:49:05;;;;;;;8.30;2.50;;;;;;;17.75;100.00;100970.72;5014076;28;20447;-73
2022/08/28 03:51:33;;;;;;;8.60;2.40;;;;;;;17.81;100.00;100971.31;5014188;28;20440;-74
2022/08/28 03:54:01;;;;;;;8.80;1.63;;;;;;;17.79;100.00;100970.81;5014262;28;20484;-73
2022/08/28 03:56:29;;;;;;;6.80;2.33;;;;;;;17.76;100.00;100977.81;5014204;28;20443;-74
2022/08/28 03:59:03;;;;;;;5.17;2.13;;;;;;;17.78;100.00;100986.47;5015355;28;20464;-75
2022/08/28 04:01:29;;;;;;;6.20;1.73;;;;;;;17.76;100.00;100979.75;5013416;28;20428;-74
2022/08/28 04:03:56;;;;;;;10.93;2.20;;;;;;;17.66;100.00;100975.44;5014051;28;20446;-73
2022/08/28 04:06:23;;;;;;;7.80;2.43;;;;;;;17.56;100.00;100976.69;5013891;28;20435;-73
2022/08/28 04:08:49;;;;;;;8.43;2.10;;;;;;;17.63;100.00;100987.09;5038237;22;20491;-75
2022/08/28 04:11:17;;;;;;;10.63;2.27;;;;;;;17.52;100.00;100980.44;5013358;28;20547;-75
2022/08/28 04:13:43;;;;;;;4.53;1.70;;;;;;;17.57;100.00;100989.25;5013562;28;20483;-73
2022/08/28 04:16:17;;;;;;;4.10;1.57;;;;;;;17.55;100.00;100997.00;5013714;28;20823;-73
2022/08/28 04:18:45;;;;;;;8.57;2.50;;;;;;;17.59;100.00;100984.25;5013522;28;20919;-73
2022/08/28 04:21:15;;;;;;;6.00;2.07;;;;;;;17.57;100.00;100997.47;5013550;28;20440;-74
2022/08/28 04:23:43;;;;;;;5.43;1.83;;;;;;;17.49;100.00;100998.38;5013539;28;20440;-74
2022/08/28 04:26:11;;;;;;;6.37;1.73;;;;;;;17.43;100.00;101001.66;5013535;28;20543;-74
2022/08/28 04:28:38;;;;;;;4.60;1.80;;;;;;;17.45;100.00;100999.38;5013394;28;20487;-73
2022/08/28 04:31:06;;;;;;;17.63;1.60;;;;;;;17.47;100.00;101005.31;5013448;28;20440;-74
2022/08/28 04:33:35;;;;;;;10.63;1.67;;;;;;;17.49;100.00;101009.31;5013542;28;20483;-73
2022/08/28 04:36:03;;;;;;;7.40;2.10;;;;;;;17.45;100.00;101010.34;5013368;28;20443;-73
2022/08/28 04:38:30;;;;;;;4.60;1.53;;;;;;;17.37;100.00;101021.03;5013118;28;20468;-73
2022/08/28 04:40:56;;;;;;;11.13;2.30;;;;;;;17.33;100.00;101025.56;5013556;28;20436;-73
2022/08/28 04:43:23;;;;;;;4.80;2.07;;;;;;;17.31;100.00;101019.66;5013338;28;20451;-73
2022/08/28 04:45:49;;;;;;;4.90;1.90;;;;;;;17.34;100.00;101027.16;5013362;28;20440;-73
2022/08/28 04:48:16;;;;;;;12.97;2.20;;;;;;;17.38;100.00;101019.88;5013179;28;20467;-73
2022/08/28 04:50:47;;;;;;;6.33;1.90;;;;;;;17.35;100.00;101028.78;5013001;28;20937;-73
2022/08/28 04:53:16;;;;;;;7.43;1.83;;;;;;;17.36;100.00;101037.81;5013171;28;20468;-73
2022/08/28 04:55:44;;;;;;;6.63;2.00;;;;;;;17.28;100.00;101025.78;5013218;28;20445;-73
2022/08/28 04:58:11;;;;;;;4.60;1.30;;;;;;;17.14;100.00;101033.47;5012940;28;20448;-73
2022/08/28 05:00:38;;;;;;;4.20;1.33;;;;;;;17.16;100.00;101031.19;5013253;28;20447;-73
2022/08/28 05:03:05;;;;;;;10.73;1.87;;;;;;;17.02;100.00;101023.25;5013243;28;20820;-75
2022/08/28 05:05:33;;;;;;;8.03;1.70;;;;;;;17.00;100.00;101025.53;5013137;28;20455;-73
2022/08/28 05:08:00;;;;;;;4.60;1.80;;;;;;;17.03;100.00;101026.78;5013008;28;20539;-74
2022/08/28 05:10:27;;;;;;;7.53;2.20;;;;;;;17.06;100.00;101031.59;5013336;28;20436;-73
2022/08/28 05:12:53;;;;;;;7.10;1.83;;;;;;;17.08;100.00;101032.84;5016908;28;20486;-73
2022/08/28 05:15:20;;;;;;;4.10;2.10;;;;;;;17.11;100.00;101043.16;5017288;28;20455;-73
2022/08/28 05:17:47;;;;;;;4.63;2.20;;;;;;;17.00;100.00;101041.13;5016457;28;20447;-74
2022/08/28 05:20:13;;;;;;;4.50;1.60;;;;;;;16.89;100.00;101043.47;5016667;28;20495;-73
2022/08/28 05:22:40;;;;;;;4.53;1.43;;;;;;;16.84;100.00;101043.66;5016596;28;20447;-72
2022/08/28 05:25:08;;;;;;;5.43;2.20;;;;;;;16.77;100.00;101043.38;5016471;28;20452;-73
2022/08/28 05:27:37;;;;;;;5.50;1.97;;;;;;;16.69;100.00;101039.56;5016513;28;20444;-72
2022/08/28 05:30:04;;;;;;;10.33;2.23;;;;;;;16.69;100.00;101036.00;5016489;28;20471;-73
2022/08/28 05:32:30;;;;;;;6.43;2.27;;;;;;;16.69;100.00;101041.47;5016415;28;20447;-74
2022/08/28 05:34:57;;;;;;;12.70;2.00;;;;;;;16.63;100.00;101040.84;5016284;28;20561;-73
2022/08/28 05:37:23;;;;;;;5.80;2.10;;;;;;;16.60;100.00;101055.19;5016060;28;20448;-73
2022/08/28 05:39:50;;;;;;;8.40;2.50;;;;;;;16.55;100.00;101053.44;5015965;28;20989;-73
2022/08/28 05:42:17;;;;;;;15.63;2.27;;;;;;;16.55;100.00;101053.44;5016104;28;20428;-73
2022/08/28 05:44:44;;;;;;;11.63;2.23;;;;;;;16.56;100.00;101059.75;5015886;28;20439;-72
2022/08/28 05:47:11;;;;;;;7.80;2.83;;;;;;;16.61;100.00;101062.28;5016199;28;20540;-72
2022/08/28 05:49:38;;;;;;;9.03;2.30;;;;;;;16.64;100.00;101053.41;5016047;28;20472;-73
2022/08/28 05:52:05;;;;;;;5.20;2.13;;;;;;;16.53;100.00;101054.91;5016157;28;20451;-74
2022/08/28 05:54:31;;;;;;;5.30;2.87;;;;;;;16.56;100.00;101054.28;5015930;28;20490;-74
2022/08/28 05:56:57;;;;;;;6.93;2.70;;;;;;;16.46;100.00;101052.69;5016073;28;20514;-73
2022/08/28 05:59:25;;;;;;;10.10;3.10;;;;;;;16.44;100.00;101059.63;5015498;28;20910;-73
2022/08/28 06:01:52;;;;;;;9.73;3.00;;;;;;;16.49;100.00;101057.50;5015791;28;20781;-73
2022/08/28 06:04:22;;;;;;;5.87;2.30;;;;;;;16.42;100.00;101050.94;5015857;28;20444;-72
2022/08/28 06:06:49;;;;;;;11.60;3.30;;;;;;;16.48;100.00;101060.56;5015921;28;20432;-75
2022/08/28 06:09:18;;;;;;;6.90;2.40;;;;;;;16.59;100.00;101061.78;5015345;28;20504;-71
2022/08/28 06:11:44;;;;;;;15.50;2.80;;;;;;;16.64;100.00;101056.13;5015682;28;20443;-73
2022/08/28 06:14:12;;;;;;;6.77;2.50;;;;;;;16.65;100.00;101055.81;5015612;28;20484;-71
2022/08/28 06:16:42;;;;;;;11.10;2.90;;;;;;;16.67;100.00;101060.94;5015338;28;20942;-71
2022/08/28 06:19:11;;;;;;;12.03;2.97;;;;;;;16.72;100.00;101044.38;5015354;28;20460;-71
2022/08/28 06:21:39;;;;;;;10.47;3.73;;;;;;;16.61;100.00;101057.63;5015164;28;20451;-72
2022/08/28 06:24:06;;;;;;;12.03;3.87;;;;;;;16.73;100.00;101050.63;5014891;28;20482;-71
2022/08/28 06:26:32;;;;;;;8.40;3.57;;;;;;;16.77;100.00;101054.31;5015594;28;20448;-71
2022/08/28 06:29:00;;;;;;;5.83;3.00;;;;;;;16.78;100.00;101070.44;5015387;28;20468;-71
2022/08/28 06:31:26;;;;;;;13.70;3.00;;;;;;;16.84;100.00;101065.56;5014929;28;20953;-71
2022/08/28 06:33:56;;;;;;;13.13;3.10;;;;;;;16.86;100.00;101064.06;5015105;28;20484;-71
2022/08/28 06:36:23;;;;;;;12.07;3.67;;;;;;;16.71;100.00;101067.38;5015301;28;20440;-70
2022/08/28 06:38:50;;;;;;;6.67;2.70;;;;;;;16.74;100.00;101066.75;5015343;28;20468;-70
2022/08/28 06:41:17;;;;;;;5.10;1.93;;;;;;;16.87;100.00;101073.91;5015082;28;20436;-70
2022/08/28 06:43:43;;;;;;;10.40;2.83;;;;;;;16.98;100.00;101077.03;5015127;28;20440;-71
2022/08/28 06:46:10;;;;;;;5.83;2.50;;;;;;;17.07;100.00;101075.06;5015001;28;20535;-71
2022/08/28 06:48:37;;;;;;;14.10;3.30;;;;;;;17.16;100.00;101075.00;5014834;28;20547;-70
2022/08/28 06:51:08;;;;;;;7.37;3.30;;;;;;;17.29;100.00;101081.34;5014928;28;20490;-70
2022/08/28 06:53:35;;;;;;;9.30;2.47;;;;;;;17.42;100.00;101085.75;5014554;28;20973;-70
2022/08/28 06:56:06;;;;;;;9.23;2.33;;;;;;;17.34;100.00;101084.66;5014857;28;20440;-71
2022/08/28 06:58:33;;;;;;;8.20;3.23;;;;;;;17.31;100.00;101099.06;5014531;28;20901;-70
2022/08/28 07:01:04;;;;;;;5.97;2.70;;;;;;;17.25;100.00;101103.09;5014801;28;20450;-71
2022/08/28 07:03:31;;;;;;;10.50;3.07;;;;;;;17.30;100.00;101100.16;5014356;28;20805;-71
2022/08/28 07:05:58;;;;;;;14.83;3.40;;;;;;;17.34;100.00;101106.56;5014800;28;20463;-71
2022/08/28 07:08:28;;;;;;;6.10;2.20;;;;;;;17.31;100.00;101107.28;5014306;28;20487;-71
2022/08/28 07:10:55;;;;;;;5.03;2.43;;;;;;;17.34;100.00;101103.84;5014628;28;20448;-70
2022/08/28 07:13:22;;;;;;;10.53;2.67;;;;;;;17.39;100.00;101108.31;5014115;28;20452;-71
2022/08/28 07:15:49;;;;;;;12.13;3.90;;;;;;;17.49;100.00;101113.41;5014135;28;20444;-70
2022/08/28 07:18:17;;;;;;;6.20;3.00;;;;;;;17.58;100.00;101119.63;5014314;28;20826;-71
2022/08/28 07:20:43;;;;;;;13.43;2.80;;;;;;;17.70;100.00;101115.31;5014138;28;20494;-70
2022/08/28 07:23:10;;;;;;;8.03;2.30;;;;;;;17.74;99.41;101119.81;5014341;28;20447;-71
2022/08/28 07:25:40;;;;;;;5.80;2.40;;;;;;;17.72;99.04;101124.81;5014308;28;20455;-70
2022/08/28 07:28:07;;;;;;;16.03;3.17;;;;;;;17.77;97.99;101134.81;5013906;28;20838;-71
2022/08/28 07:30:33;;;;;;;7.83;3.13;;;;;;;17.74;98.08;101122.56;5014127;28;20448;-69
2022/08/28 07:33:00;;;;;;;10.27;2.13;;;;;;;17.79;97.52;101127.81;5013865;28;20864;-71
2022/08/28 07:35:26;;;;;;;6.37;2.20;;;;;;;17.78;98.23;101122.69;5013171;28;20562;-72
2022/08/28 07:37:53;;;;;;;6.13;2.77;;;;;;;17.85;98.88;101134.72;5013906;28;20451;-73
2022/08/28 07:40:21;;;;;;;5.83;1.90;;;;;;;17.83;97.90;101130.69;5014023;28;20443;-73
2022/08/28 07:45:38;;;;;;;4.83;2.57;;;;;;;17.85;98.79;101144.88;4958445;28;20443;-72
2022/08/28 07:48:07;;;;;;;6.33;2.93;;;;;;;17.86;98.21;101149.22;5013667;28;20906;-73
2022/08/28 07:50:33;;;;;;;6.33;2.50;;;;;;;17.84;97.53;101152.31;5013651;28;20972;-72
2022/08/28 07:53:00;;;;;;;9.70;1.97;;;;;;;17.83;98.22;101150.69;5013936;28;20815;-72
2022/08/28 07:55:28;;;;;;;7.47;3.63;;;;;;;17.75;97.19;101157.06;5013755;28;20522;-72
2022/08/28 07:57:56;;;;;;;10.00;2.77;;;;;;;17.66;97.90;101156.28;5013541;28;20953;-73
2022/08/28 08:00:22;;;;;;;7.50;2.70;;;;;;;17.58;98.65;101155.22;5013867;28;20440;-73
2022/08/28 08:02:49;;;;;;;5.00;2.40;;;;;;;17.59;99.35;101158.78;5013767;28;20490;-73
2022/08/28 08:05:15;;;;;;;13.03;3.70;;;;;;;17.55;99.56;101155.91;5013828;28;20440;-75
2022/08/28 08:07:42;;;;;;;18.03;3.30;;;;;;;17.63;100.00;101157.75;5013848;28;20451;-73
2022/08/28 08:10:13;;;;;;;15.97;3.07;;;;;;;17.76;99.54;101166.09;5013269;28;20564;-70
2022/08/28 08:12:41;;;;;;;4.83;2.50;;;;;;;17.61;99.00;101162.75;5013354;28;20894;-71
2022/08/28 08:15:10;;;;;;;6.00;3.07;;;;;;;17.71;100.00;101166.22;5013501;28;20488;-71
2022/08/28 08:17:37;;;;;;;12.93;2.93;;;;;;;17.68;98.91;101170.47;5013440;28;20455;-71
2022/08/28 08:20:04;;;;;;;14.00;4.17;;;;;;;17.60;99.37;101169.38;5013523;28;20460;-71
2022/08/28 08:22:30;;;;;;;8.40;2.80;;;;;;;17.58;99.70;101168.13;5013549;28;20472;-71
2022/08/28 08:24:57;;;;;;;9.07;3.10;;;;;;;17.63;99.62;101167.94;5013466;28;20444;-71
2022/08/28 08:27:23;;;;;;;6.43;2.60;;;;;;;17.52;99.86;101166.72;5013414;28;20447;-76
2022/08/28 08:29:50;;;;;;;8.30;3.00;;;;;;;17.58;100.00;101165.41;5013554;28;20468;-72
2022/08/28 08:32:18;;;;;;;10.40;3.57;;;;;;;17.62;100.00;101169.88;5013709;28;20467;-71
2022/08/28 08:34:45;;;;;;;6.37;2.77;;;;;;;17.70;100.00;101179.13;5013503;28;20480;-71
2022/08/28 08:37:13;;;;;;;9.60;3.67;;;;;;;17.62;99.35;101169.06;5013646;28;20498;-72
2022/08/28 08:39:41;;;;;;;7.30;3.13;;;;;;;17.54;100.00;101175.41;5013518;28;20463;-72
2022/08/28 08:42:19;;;;;;;19.03;4.10;;;;;;;17.60;100.00;101176.81;5013714;28;20543;-73
2022/08/28 08:44:48;;;;;;;9.33;3.40;;;;;;;17.62;99.53;101178.09;5013728;28;20432;-71
2022/08/28 08:47:21;;;;;;;8.00;3.50;;;;;;;17.63;99.92;101181.63;5016381;28;20447;-71
2022/08/28 08:49:51;;;;;;;5.67;2.60;;;;;;;17.68;100.00;101181.41;5017406;28;20566;-72
2022/08/28 08:52:37;;;;;;;8.70;3.70;;;;;;;17.47;100.00;101181.41;5017836;28;20482;-72
2022/08/28 08:55:24;;;;;;;12.23;3.50;;;;;;;17.51;100.00;101176.06;5017237;28;20464;-72
2022/08/28 08:58:00;;;;;;;8.83;3.47;;;;;;;17.47;100.00;101178.66;5017142;28;20963;-73
2022/08/28 09:00:29;;;;;;;7.70;3.87;;;;;;;17.60;100.00;101174.88;5017310;28;20435;-72
2022/08/28 09:03:05;;;;;;;11.37;2.97;;;;;;;17.73;100.00;101183.16;5017018;28;20458;-72
2022/08/28 09:05:45;;;;;;;7.70;2.90;;;;;;;17.76;99.76;101177.84;5016951;28;20428;-72
2022/08/28 09:08:21;;;;;;;7.53;3.90;;;;;;;17.83;100.00;101188.25;5016338;28;20799;-71
2022/08/28 09:10:55;;;;;;;10.83;3.30;;;;;;;17.91;99.31;101192.88;5016692;28;20782;-72
2022/08/28 09:13:28;;;;;;;9.33;3.87;;;;;;;17.97;98.23;101188.78;5016837;28;20420;-71
2022/08/28 09:15:54;;;;;;;10.10;3.10;;;;;;;17.68;99.02;101186.91;5016867;28;20477;-73
2022/08/28 09:18:27;;;;;;;7.97;2.80;;;;;;;17.76;99.55;101183.31;5016901;28;20467;-72
2022/08/28 09:20:56;;;;;;;6.10;2.40;;;;;;;17.92;99.88;101188.19;5016545;28;20436;-72
2022/08/28 09:23:26;;;;;;;7.17;2.93;;;;;;;17.97;99.21;101187.97;5016735;28;20861;-72
2022/08/28 09:25:56;;;;;;;8.63;3.07;;;;;;;18.04;99.04;101193.72;5016825;28;20439;-71
2022/08/28 09:28:25;;;;;;;8.13;2.93;;;;;;;18.16;97.76;101191.03;5016483;28;20466;-73
2022/08/28 09:30:59;;;;;;;7.30;3.90;;;;;;;18.17;97.68;101189.88;5016497;28;20455;-72
2022/08/28 09:33:33;;;;;;;7.47;3.23;;;;;;;18.24;97.32;101192.06;5016452;28;20424;-73
2022/08/28 09:36:22;;;;;;;13.23;3.50;;;;;;;17.95;97.88;101190.25;5016323;28;20467;-73
2022/08/28 09:39:05;;;;;;;5.50;2.70;;;;;;;18.12;98.65;101198.34;5015969;28;20495;-72
2022/08/28 09:44:15;;;;;;;6.63;3.10;;;;;;;18.09;97.88;101196.25;4986018;28;20522;-72
2022/08/28 09:46:47;;;;;;;9.80;3.77;;;;;;;18.11;96.46;101211.25;5016517;28;20448;-74
2022/08/28 09:49:16;;;;;;;15.20;3.80;;;;;;;18.18;96.99;101210.69;5016243;28;20521;-72
2022/08/28 09:51:43;;;;;;;9.23;2.80;;;;;;;18.27;96.85;101211.41;5016263;28;20456;-73
2022/08/28 09:54:18;;;;;;;7.00;3.43;;;;;;;18.23;96.10;101207.72;5016115;28;20506;-73
2022/08/28 09:56:46;;;;;;;5.07;2.90;;;;;;;18.18;96.67;101212.63;5016387;28;20436;-72
2022/08/28 09:59:15;;;;;;;11.00;3.50;;;;;;;18.22;96.78;101208.88;5014925;28;21015;-72
2022/08/28 10:01:51;;;;;;;5.70;2.93;;;;;;;18.33;95.68;101212.00;5015898;28;20444;-72
2022/08/28 10:04:54;;;;;;;8.60;3.30;;;;;;;18.42;96.45;101215.47;5015528;28;20435;-72
2022/08/28 10:07:30;;;;;;;10.30;3.40;;;;;;;18.41;96.30;101222.88;5000604;28;20444;-72
2022/08/28 10:10:07;;;;;;;5.23;2.23;;;;;;;18.51;96.07;101215.38;5015452;28;20471;-72
2022/08/28 10:12:45;;;;;;;13.27;3.43;;;;;;;18.54;96.25;101212.72;5015836;28;20436;-72
2022/08/28 10:15:21;;;;;;;5.67;3.00;;;;;;;18.52;95.17;101226.00;5015460;28;20472;-72
2022/08/28 10:18:04;;;;;;;4.27;2.13;;;;;;;18.43;96.58;101210.78;5015862;28;20428;-72
2022/08/28 10:20:43;;;;;;;8.40;3.00;;;;;;;18.30;96.73;101224.44;5015708;28;20551;-72
2022/08/28 10:23:17;;;;;;;5.23;2.60;;;;;;;18.27;97.96;101224.31;5015598;28;20519;-72
2022/08/28 10:25:52;;;;;;;5.90;3.03;;;;;;;18.31;97.46;101222.50;5015492;28;20435;-71
2022/08/28 10:28:35;;;;;;;6.30;3.23;;;;;;;18.36;97.43;101228.56;5015419;28;20467;-71
2022/08/28 10:31:09;;;;;;;7.23;3.03;;;;;;;18.41;97.54;101236.59;5015052;28;20936;-72
2022/08/28 10:33:53;;;;;;;6.20;3.03;;;;;;;18.41;98.09;101228.34;5015754;28;20429;-73
2022/08/28 10:36:25;;;;;;;8.30;3.37;;;;;;;18.50;97.85;101224.72;5014915;28;20479;-72
2022/08/28 10:39:03;;;;;;;9.40;3.40;;;;;;;18.56;98.02;101232.41;5015187;28;20522;-72
2022/08/28 10:41:35;;;;;;;7.23;3.70;;;;;;;18.57;98.09;101238.69;5014830;28;20933;-72
2022/08/28 10:44:03;;;;;;;9.17;2.70;;;;;;;18.49;98.00;101239.59;5015175;28;20432;-73
2022/08/28 10:46:36;;;;;;;5.40;2.40;;;;;;;18.55;97.58;101238.22;5014819;28;20941;-72
2022/08/28 10:49:08;;;;;;;8.97;3.87;;;;;;;18.55;97.68;101239.06;5015024;28;20518;-71
2022/08/28 10:51:43;;;;;;;6.47;2.93;;;;;;;18.59;98.69;101247.38;5015146;28;20436;-72
2022/08/28 10:54:19;;;;;;;9.63;2.50;;;;;;;18.45;98.09;101252.38;5017086;28;20436;-72
2022/08/28 10:56:53;;;;;;;6.30;3.57;;;;;;;18.40;98.99;101245.16;5015282;28;20889;-72
2022/08/28 10:59:20;;;;;;;10.07;3.30;;;;;;;18.43;98.44;101252.72;5014504;28;20475;-71
2022/08/28 11:01:47;;;;;;;10.70;3.57;;;;;;;18.40;97.54;101253.38;5014732;28;20444;-72
2022/08/28 11:04:18;;;;;;;6.70;3.50;;;;;;;18.40;96.95;101256.94;5014502;28;20937;-73
2022/08/28 11:06:50;;;;;;;8.40;3.87;;;;;;;18.32;97.86;101254.28;5014506;28;20431;-72
2022/08/28 11:09:29;;;;;;;7.53;3.67;;;;;;;18.31;98.11;101258.97;5014271;28;20480;-72
2022/08/28 11:11:58;;;;;;;6.67;3.20;;;;;;;18.20;100.00;101252.28;5014758;28;20432;-72
2022/08/28 11:14:30;;;;;;;14.60;3.30;;;;;;;18.31;99.62;101258.16;5014457;28;20443;-72
2022/08/28 11:17:00;;;;;;;10.70;3.33;;;;;;;18.36;99.07;101258.75;5014294;28;20909;-72
2022/08/28 11:20:02;;;;;;;8.90;3.10;;;;;;;18.31;98.79;101261.69;5014026;28;20472;-72
2022/08/28 11:22:34;;;;;;;6.80;3.37;;;;;;;18.40;98.77;101261.63;5014499;28;20428;-72
2022/08/28 11:25:11;;;;;;;7.27;3.77;;;;;;;18.42;99.78;101259.34;5014384;28;20436;-71
2022/08/28 11:27:39;;;;;;;8.57;4.23;;;;;;;18.44;98.34;101264.50;5014105;28;20451;-72
2022/08/28 11:30:32;;;;;;;10.30;3.97;;;;;;;18.39;97.73;101271.00;5014237;28;20517;-72
2022/08/28 11:33:05;;;;;;;8.47;3.33;;;;;;;18.28;99.04;101265.13;5014216;28;20437;-72
2022/08/28 11:35:50;;;;;;;7.33;4.13;;;;;;;18.32;99.54;101266.03;5014131;28;20519;-71
2022/08/28 11:38:54;;;;;;;11.47;4.53;;;;;;;18.29;98.92;101268.69;5014146;28;20468;-72